sensor_id;sensor_type;location;lat;lon;timestamp;P1;P2;P0
47587;PMS5003;34356;45.788;12.046;2022-10-16T00:01:14;49;40;
47587;PMS5003;34356;45.788;12.046;2022-10-16T00:03:45;45;41;
47587;PMS5003;34356;45.788;12.046;2022-10-16T00:06:14;43;40;
47587;PMS5003;34356;45.788;12.046;2022-10-16T00:08:42;45;39;
47587;PMS5003;34356;45.788;12.046;2022-10-16T00:11:11;40;37;
47587;PMS5003;34356;45.788;12.046;2022-10-16T00:13:41;48;44;
47587;PMS5003;34356;45.788;12.046;2022-10-16T00:16:10;56;48;
47587;PMS5003;34356;45.788;12.046;2022-10-16T00:18:38;54;47;
47587;PMS5003;34356;45.788;12.046;2022-10-16T00:21:07;50;44;
47587;PMS5003;34356;45.788;12.046;2022-10-16T00:23:37;52;44;
47587;PMS5003;34356;45.788;12.046;2022-10-16T00:26:06;49;43;
47587;PMS5003;34356;45.788;12.046;2022-10-16T00:28:35;47;41;
47587;PMS5003;34356;45.788;12.046;2022-10-16T00:31:03;41;37;
47587;PMS5003;34356;45.788;12.046;2022-10-16T00:33:32;54;46;
47587;PMS5003;34356;45.788;12.046;2022-10-16T00:36:00;40;36;
47587;PMS5003;34356;45.788;12.046;2022-10-16T00:38:29;46;39;
47587;PMS5003;34356;45.788;12.046;2022-10-16T00:40:57;42;39;
47587;PMS5003;34356;45.788;12.046;2022-10-16T00:43:33;44;40;
47587;PMS5003;34356;45.788;12.046;2022-10-16T00:46:04;44;42;
47587;PMS5003;34356;45.788;12.046;2022-10-16T00:48:37;46;41;
47587;PMS5003;34356;45.788;12.046;2022-10-16T00:51:04;49;44;
47587;PMS5003;34356;45.788;12.046;2022-10-16T00:53:33;47;42;
47587;PMS5003;34356;45.788;12.046;2022-10-16T00:56:02;40;39;
47587;PMS5003;34356;45.788;12.046;2022-10-16T00:58:30;44;41;
47587;PMS5003;34356;45.788;12.046;2022-10-16T01:00:57;47;39;
47587;PMS5003;34356;45.788;12.046;2022-10-16T01:03:26;48;42;
47587;PMS5003;34356;45.788;12.046;2022-10-16T01:05:58;47;43;
47587;PMS5003;34356;45.788;12.046;2022-10-16T01:08:37;43;41;
47587;PMS5003;34356;45.788;12.046;2022-10-16T01:11:15;42;35;
47587;PMS5003;34356;45.788;12.046;2022-10-16T01:13:50;47;44;
47587;PMS5003;34356;45.788;12.046;2022-10-16T01:16:24;44;38;
47587;PMS5003;34356;45.788;12.046;2022-10-16T01:19:01;40;37;
47587;PMS5003;34356;45.788;12.046;2022-10-16T01:21:35;45;39;
47587;PMS5003;34356;45.788;12.046;2022-10-16T01:24:07;43;38;
47587;PMS5003;34356;45.788;12.046;2022-10-16T01:26:52;38;35;
47587;PMS5003;34356;45.788;12.046;2022-10-16T01:29:29;41;38;
47587;PMS5003;34356;45.788;12.046;2022-10-16T01:32:02;37;33;
47587;PMS5003;34356;45.788;12.046;2022-10-16T01:34:37;54;44;
47587;PMS5003;34356;45.788;12.046;2022-10-16T01:37:09;45;43;
47587;PMS5003;34356;45.788;12.046;2022-10-16T01:39:42;46;45;
47587;PMS5003;34356;45.788;12.046;2022-10-16T01:42:14;45;42;
47587;PMS5003;34356;45.788;12.046;2022-10-16T01:44:45;42;37;
47587;PMS5003;34356;45.788;12.046;2022-10-16T01:47:15;37;36;
47587;PMS5003;34356;45.788;12.046;2022-10-16T01:49:45;37;34;
47587;PMS5003;34356;45.788;12.046;2022-10-16T01:52:13;39;34;
47587;PMS5003;34356;45.788;12.046;2022-10-16T01:54:44;45;40;
47587;PMS5003;34356;45.788;12.046;2022-10-16T01:57:14;41;34;
47587;PMS5003;34356;45.788;12.046;2022-10-16T01:59:45;45;38;
47587;PMS5003;34356;45.788;12.046;2022-10-16T02:02:14;36;35;
47587;PMS5003;34356;45.788;12.046;2022-10-16T02:04:45;33;30;
47587;PMS5003;34356;45.788;12.046;2022-10-16T02:07:16;37;34;
47587;PMS5003;34356;45.788;12.046;2022-10-16T02:09:43;36;30;
47587;PMS5003;34356;45.788;12.046;2022-10-16T02:12:11;37;32;
47587;PMS5003;34356;45.788;12.046;2022-10-16T02:14:45;34;30;
47587;PMS5003;34356;45.788;12.046;2022-10-16T02:17:13;30;26;
47587;PMS5003;34356;45.788;12.046;2022-10-16T02:19:43;31;28;
47587;PMS5003;34356;45.788;12.046;2022-10-16T02:22:15;35;34;
47587;PMS5003;34356;45.788;12.046;2022-10-16T02:24:50;34;32;
47587;PMS5003;34356;45.788;12.046;2022-10-16T02:27:22;45;38;
47587;PMS5003;34356;45.788;12.046;2022-10-16T02:29:57;37;35;
47587;PMS5003;34356;45.788;12.046;2022-10-16T02:32:31;36;36;
47587;PMS5003;34356;45.788;12.046;2022-10-16T02:35:01;38;34;
47587;PMS5003;34356;45.788;12.046;2022-10-16T02:37:30;38;37;
47587;PMS5003;34356;45.788;12.046;2022-10-16T02:39:59;45;40;
47587;PMS5003;34356;45.788;12.046;2022-10-16T02:42:28;39;37;
47587;PMS5003;34356;45.788;12.046;2022-10-16T02:44:55;38;37;
47587;PMS5003;34356;45.788;12.046;2022-10-16T02:47:23;41;35;
47587;PMS5003;34356;45.788;12.046;2022-10-16T02:49:50;29;28;
47587;PMS5003;34356;45.788;12.046;2022-10-16T02:52:17;32;30;
47587;PMS5003;34356;45.788;12.046;2022-10-16T02:54:45;44;39;
47587;PMS5003;34356;45.788;12.046;2022-10-16T02:57:12;45;42;
47587;PMS5003;34356;45.788;12.046;2022-10-16T02:59:39;45;40;
47587;PMS5003;34356;45.788;12.046;2022-10-16T03:02:06;38;33;
47587;PMS5003;34356;45.788;12.046;2022-10-16T03:04:34;35;32;
47587;PMS5003;34356;45.788;12.046;2022-10-16T03:07:01;38;36;
47587;PMS5003;34356;45.788;12.046;2022-10-16T03:09:28;42;36;
47587;PMS5003;34356;45.788;12.046;2022-10-16T03:11:55;40;39;
47587;PMS5003;34356;45.788;12.046;2022-10-16T03:14:22;46;38;
47587;PMS5003;34356;45.788;12.046;2022-10-16T03:16:49;47;46;
47587;PMS5003;34356;45.788;12.046;2022-10-16T03:19:17;45;43;
47587;PMS5003;34356;45.788;12.046;2022-10-16T03:21:45;52;45;
47587;PMS5003;34356;45.788;12.046;2022-10-16T03:24:12;41;40;
47587;PMS5003;34356;45.788;12.046;2022-10-16T03:26:40;46;41;
47587;PMS5003;34356;45.788;12.046;2022-10-16T03:29:07;42;40;
47587;PMS5003;34356;45.788;12.046;2022-10-16T03:31:35;57;53;
47587;PMS5003;34356;45.788;12.046;2022-10-16T03:34:02;50;41;
47587;PMS5003;34356;45.788;12.046;2022-10-16T03:36:29;50;45;
47587;PMS5003;34356;45.788;12.046;2022-10-16T03:38:57;48;46;
47587;PMS5003;34356;45.788;12.046;2022-10-16T03:41:24;41;37;
47587;PMS5003;34356;45.788;12.046;2022-10-16T03:43:52;43;37;
47587;PMS5003;34356;45.788;12.046;2022-10-16T03:46:19;35;33;
47587;PMS5003;34356;45.788;12.046;2022-10-16T03:48:46;49;41;
47587;PMS5003;34356;45.788;12.046;2022-10-16T03:51:13;44;39;
47587;PMS5003;34356;45.788;12.046;2022-10-16T03:53:41;51;46;
47587;PMS5003;34356;45.788;12.046;2022-10-16T03:56:08;40;35;
47587;PMS5003;34356;45.788;12.046;2022-10-16T03:58:36;44;40;
47587;PMS5003;34356;45.788;12.046;2022-10-16T04:01:03;41;39;
47587;PMS5003;34356;45.788;12.046;2022-10-16T04:03:31;41;38;
47587;PMS5003;34356;45.788;12.046;2022-10-16T04:05:58;42;42;
47587;PMS5003;34356;45.788;12.046;2022-10-16T04:08:25;53;48;
47587;PMS5003;34356;45.788;12.046;2022-10-16T04:10:52;40;38;
47587;PMS5003;34356;45.788;12.046;2022-10-16T04:13:19;50;39;
47587;PMS5003;34356;45.788;12.046;2022-10-16T04:15:46;39;35;
47587;PMS5003;34356;45.788;12.046;2022-10-16T04:18:13;40;31;
47587;PMS5003;34356;45.788;12.046;2022-10-16T04:20:40;43;37;
47587;PMS5003;34356;45.788;12.046;2022-10-16T04:23:08;44;40;
47587;PMS5003;34356;45.788;12.046;2022-10-16T04:25:35;45;42;
47587;PMS5003;34356;45.788;12.046;2022-10-16T04:28:03;39;36;
47587;PMS5003;34356;45.788;12.046;2022-10-16T04:30:30;43;43;
47587;PMS5003;34356;45.788;12.046;2022-10-16T04:32:57;44;41;
47587;PMS5003;34356;45.788;12.046;2022-10-16T04:35:24;50;47;
47587;PMS5003;34356;45.788;12.046;2022-10-16T04:37:52;50;42;
47587;PMS5003;34356;45.788;12.046;2022-10-16T04:40:20;48;42;
47587;PMS5003;34356;45.788;12.046;2022-10-16T04:42:47;47;41;
47587;PMS5003;34356;45.788;12.046;2022-10-16T04:45:14;50;44;
47587;PMS5003;34356;45.788;12.046;2022-10-16T04:47:42;46;46;
47587;PMS5003;34356;45.788;12.046;2022-10-16T04:50:09;45;40;
47587;PMS5003;34356;45.788;12.046;2022-10-16T04:52:36;50;45;
47587;PMS5003;34356;45.788;12.046;2022-10-16T04:55:05;46;42;
47587;PMS5003;34356;45.788;12.046;2022-10-16T04:57:32;48;43;
47587;PMS5003;34356;45.788;12.046;2022-10-16T05:00:00;46;43;
47587;PMS5003;34356;45.788;12.046;2022-10-16T05:02:27;48;44;
47587;PMS5003;34356;45.788;12.046;2022-10-16T05:04:54;57;49;
47587;PMS5003;34356;45.788;12.046;2022-10-16T05:07:22;44;40;
47587;PMS5003;34356;45.788;12.046;2022-10-16T05:09:49;54;49;
47587;PMS5003;34356;45.788;12.046;2022-10-16T05:12:16;62;54;
47587;PMS5003;34356;45.788;12.046;2022-10-16T05:14:43;54;49;
47587;PMS5003;34356;45.788;12.046;2022-10-16T05:17:10;38;38;
47587;PMS5003;34356;45.788;12.046;2022-10-16T05:19:38;58;52;
47587;PMS5003;34356;45.788;12.046;2022-10-16T05:22:04;49;46;
47587;PMS5003;34356;45.788;12.046;2022-10-16T05:24:32;47;42;
47587;PMS5003;34356;45.788;12.046;2022-10-16T05:26:59;50;47;
47587;PMS5003;34356;45.788;12.046;2022-10-16T05:29:26;49;48;
47587;PMS5003;34356;45.788;12.046;2022-10-16T05:31:53;53;48;
47587;PMS5003;34356;45.788;12.046;2022-10-16T05:34:21;40;37;
47587;PMS5003;34356;45.788;12.046;2022-10-16T05:36:48;50;46;
47587;PMS5003;34356;45.788;12.046;2022-10-16T05:39:17;48;44;
47587;PMS5003;34356;45.788;12.046;2022-10-16T05:41:45;43;41;
47587;PMS5003;34356;45.788;12.046;2022-10-16T05:44:13;50;48;
47587;PMS5003;34356;45.788;12.046;2022-10-16T05:46:40;48;42;
47587;PMS5003;34356;45.788;12.046;2022-10-16T05:49:07;40;37;
47587;PMS5003;34356;45.788;12.046;2022-10-16T05:51:35;44;41;
47587;PMS5003;34356;45.788;12.046;2022-10-16T05:54:02;42;40;
47587;PMS5003;34356;45.788;12.046;2022-10-16T05:56:29;47;45;
47587;PMS5003;34356;45.788;12.046;2022-10-16T05:58:56;47;43;
47587;PMS5003;34356;45.788;12.046;2022-10-16T06:01:24;52;47;
47587;PMS5003;34356;45.788;12.046;2022-10-16T06:03:51;43;41;
47587;PMS5003;34356;45.788;12.046;2022-10-16T06:06:19;49;42;
47587;PMS5003;34356;45.788;12.046;2022-10-16T06:08:49;40;36;
47587;PMS5003;34356;45.788;12.046;2022-10-16T06:11:17;45;42;
47587;PMS5003;34356;45.788;12.046;2022-10-16T06:13:49;52;43;
47587;PMS5003;34356;45.788;12.046;2022-10-16T06:16:17;52;49;
47587;PMS5003;34356;45.788;12.046;2022-10-16T06:18:44;39;35;
47587;PMS5003;34356;45.788;12.046;2022-10-16T06:21:12;55;45;
47587;PMS5003;34356;45.788;12.046;2022-10-16T06:23:42;52;50;
47587;PMS5003;34356;45.788;12.046;2022-10-16T06:26:10;56;47;
47587;PMS5003;34356;45.788;12.046;2022-10-16T06:28:39;60;49;
47587;PMS5003;34356;45.788;12.046;2022-10-16T06:31:07;53;49;
47587;PMS5003;34356;45.788;12.046;2022-10-16T06:33:36;43;37;
47587;PMS5003;34356;45.788;12.046;2022-10-16T06:36:05;48;42;
47587;PMS5003;34356;45.788;12.046;2022-10-16T06:38:34;48;47;
47587;PMS5003;34356;45.788;12.046;2022-10-16T06:41:02;44;40;
47587;PMS5003;34356;45.788;12.046;2022-10-16T06:43:31;48;44;
47587;PMS5003;34356;45.788;12.046;2022-10-16T06:45:59;48;42;
47587;PMS5003;34356;45.788;12.046;2022-10-16T06:48:27;44;39;
47587;PMS5003;34356;45.788;12.046;2022-10-16T06:50:56;49;46;
47587;PMS5003;34356;45.788;12.046;2022-10-16T06:53:24;46;41;
47587;PMS5003;34356;45.788;12.046;2022-10-16T06:55:52;50;45;
47587;PMS5003;34356;45.788;12.046;2022-10-16T06:58:19;47;45;
47587;PMS5003;34356;45.788;12.046;2022-10-16T07:00:55;43;40;
47587;PMS5003;34356;45.788;12.046;2022-10-16T07:03:22;49;47;
47587;PMS5003;34356;45.788;12.046;2022-10-16T07:05:49;49;47;
47587;PMS5003;34356;45.788;12.046;2022-10-16T07:08:16;41;37;
47587;PMS5003;34356;45.788;12.046;2022-10-16T07:10:43;41;39;
47587;PMS5003;34356;45.788;12.046;2022-10-16T07:13:11;51;46;
47587;PMS5003;34356;45.788;12.046;2022-10-16T07:15:38;49;44;
47587;PMS5003;34356;45.788;12.046;2022-10-16T07:18:10;52;47;
47587;PMS5003;34356;45.788;12.046;2022-10-16T07:20:38;51;47;
47587;PMS5003;34356;45.788;12.046;2022-10-16T07:23:05;39;37;
47587;PMS5003;34356;45.788;12.046;2022-10-16T07:25:32;43;43;
47587;PMS5003;34356;45.788;12.046;2022-10-16T07:27:59;42;42;
47587;PMS5003;34356;45.788;12.046;2022-10-16T07:30:27;58;45;
47587;PMS5003;34356;45.788;12.046;2022-10-16T07:32:54;56;52;
47587;PMS5003;34356;45.788;12.046;2022-10-16T07:35:21;54;48;
47587;PMS5003;34356;45.788;12.046;2022-10-16T07:37:48;51;50;
47587;PMS5003;34356;45.788;12.046;2022-10-16T07:40:15;52;49;
47587;PMS5003;34356;45.788;12.046;2022-10-16T07:42:42;45;44;
47587;PMS5003;34356;45.788;12.046;2022-10-16T07:45:09;49;43;
47587;PMS5003;34356;45.788;12.046;2022-10-16T07:47:37;45;43;
47587;PMS5003;34356;45.788;12.046;2022-10-16T07:50:04;40;40;
47587;PMS5003;34356;45.788;12.046;2022-10-16T07:52:32;52;44;
47587;PMS5003;34356;45.788;12.046;2022-10-16T07:54:59;52;45;
47587;PMS5003;34356;45.788;12.046;2022-10-16T07:57:26;39;39;
47587;PMS5003;34356;45.788;12.046;2022-10-16T07:59:54;48;45;
47587;PMS5003;34356;45.788;12.046;2022-10-16T08:02:21;45;41;
47587;PMS5003;34356;45.788;12.046;2022-10-16T08:04:47;46;38;
47587;PMS5003;34356;45.788;12.046;2022-10-16T08:07:15;50;45;
47587;PMS5003;34356;45.788;12.046;2022-10-16T08:09:42;44;41;
47587;PMS5003;34356;45.788;12.046;2022-10-16T08:12:09;41;39;
47587;PMS5003;34356;45.788;12.046;2022-10-16T08:14:36;46;45;
47587;PMS5003;34356;45.788;12.046;2022-10-16T08:17:03;46;43;
47587;PMS5003;34356;45.788;12.046;2022-10-16T08:19:31;37;36;
47587;PMS5003;34356;45.788;12.046;2022-10-16T08:21:57;50;46;
47587;PMS5003;34356;45.788;12.046;2022-10-16T08:24:24;45;43;
47587;PMS5003;34356;45.788;12.046;2022-10-16T08:26:53;54;47;
47587;PMS5003;34356;45.788;12.046;2022-10-16T08:29:20;41;36;
47587;PMS5003;34356;45.788;12.046;2022-10-16T08:31:47;46;45;
47587;PMS5003;34356;45.788;12.046;2022-10-16T08:34:15;49;46;
47587;PMS5003;34356;45.788;12.046;2022-10-16T08:36:43;47;43;
47587;PMS5003;34356;45.788;12.046;2022-10-16T08:39:10;48;43;
47587;PMS5003;34356;45.788;12.046;2022-10-16T08:41:49;44;39;
47587;PMS5003;34356;45.788;12.046;2022-10-16T08:44:56;41;38;
47587;PMS5003;34356;45.788;12.046;2022-10-16T08:47:40;49;42;
47587;PMS5003;34356;45.788;12.046;2022-10-16T08:50:17;49;43;
47587;PMS5003;34356;45.788;12.046;2022-10-16T08:52:48;49;42;
47587;PMS5003;34356;45.788;12.046;2022-10-16T08:55:17;47;39;
47587;PMS5003;34356;45.788;12.046;2022-10-16T08:57:56;45;40;
47587;PMS5003;34356;45.788;12.046;2022-10-16T09:00:24;44;41;
47587;PMS5003;34356;45.788;12.046;2022-10-16T09:02:53;48;47;
47587;PMS5003;34356;45.788;12.046;2022-10-16T09:05:36;45;43;
47587;PMS5003;34356;45.788;12.046;2022-10-16T09:08:19;50;43;
47587;PMS5003;34356;45.788;12.046;2022-10-16T09:10:55;46;41;
47587;PMS5003;34356;45.788;12.046;2022-10-16T09:13:26;47;44;
47587;PMS5003;34356;45.788;12.046;2022-10-16T09:15:59;45;38;
47587;PMS5003;34356;45.788;12.046;2022-10-16T09:18:41;48;40;
47587;PMS5003;34356;45.788;12.046;2022-10-16T09:21:14;43;40;
47587;PMS5003;34356;45.788;12.046;2022-10-16T09:23:46;41;39;
47587;PMS5003;34356;45.788;12.046;2022-10-16T09:26:14;40;39;
47587;PMS5003;34356;45.788;12.046;2022-10-16T09:28:44;44;40;
47587;PMS5003;34356;45.788;12.046;2022-10-16T09:31:13;38;36;
47587;PMS5003;34356;45.788;12.046;2022-10-16T09:33:47;46;40;
47587;PMS5003;34356;45.788;12.046;2022-10-16T09:36:19;42;41;
47587;PMS5003;34356;45.788;12.046;2022-10-16T09:38:48;44;40;
47587;PMS5003;34356;45.788;12.046;2022-10-16T09:41:16;46;40;
47587;PMS5003;34356;45.788;12.046;2022-10-16T09:43:47;47;42;
47587;PMS5003;34356;45.788;12.046;2022-10-16T09:46:22;34;34;
47587;PMS5003;34356;45.788;12.046;2022-10-16T09:48:53;44;40;
47587;PMS5003;34356;45.788;12.046;2022-10-16T09:51:23;46;43;
47587;PMS5003;34356;45.788;12.046;2022-10-16T09:53:55;39;36;
47587;PMS5003;34356;45.788;12.046;2022-10-16T09:56:24;45;38;
47587;PMS5003;34356;45.788;12.046;2022-10-16T09:58:53;46;44;
47587;PMS5003;34356;45.788;12.046;2022-10-16T10:01:22;53;42;
47587;PMS5003;34356;45.788;12.046;2022-10-16T10:03:56;39;38;
47587;PMS5003;34356;45.788;12.046;2022-10-16T10:06:24;45;40;
47587;PMS5003;34356;45.788;12.046;2022-10-16T10:08:56;38;36;
47587;PMS5003;34356;45.788;12.046;2022-10-16T10:11:42;33;32;
47587;PMS5003;34356;45.788;12.046;2022-10-16T10:14:16;40;38;
47587;PMS5003;34356;45.788;12.046;2022-10-16T10:16:49;38;33;
47587;PMS5003;34356;45.788;12.046;2022-10-16T10:19:18;38;35;
47587;PMS5003;34356;45.788;12.046;2022-10-16T10:21:47;38;33;
47587;PMS5003;34356;45.788;12.046;2022-10-16T10:24:16;36;33;
47587;PMS5003;34356;45.788;12.046;2022-10-16T10:26:48;39;37;
47587;PMS5003;34356;45.788;12.046;2022-10-16T10:29:28;41;34;
47587;PMS5003;34356;45.788;12.046;2022-10-16T10:32:06;42;37;
47587;PMS5003;34356;45.788;12.046;2022-10-16T10:34:51;33;31;
47587;PMS5003;34356;45.788;12.046;2022-10-16T10:37:30;39;37;
47587;PMS5003;34356;45.788;12.046;2022-10-16T10:40:13;38;34;
47587;PMS5003;34356;45.788;12.046;2022-10-16T10:42:51;32;29;
47587;PMS5003;34356;45.788;12.046;2022-10-16T10:45:26;38;34;
47587;PMS5003;34356;45.788;12.046;2022-10-16T10:48:05;31;29;
47587;PMS5003;34356;45.788;12.046;2022-10-16T10:50:45;32;30;
47587;PMS5003;34356;45.788;12.046;2022-10-16T10:53:24;29;28;
47587;PMS5003;34356;45.788;12.046;2022-10-16T10:56:00;36;34;
47587;PMS5003;34356;45.788;12.046;2022-10-16T10:58:57;41;35;
47587;PMS5003;34356;45.788;12.046;2022-10-16T11:01:45;38;35;
47587;PMS5003;34356;45.788;12.046;2022-10-16T11:04:29;34;33;
47587;PMS5003;34356;45.788;12.046;2022-10-16T11:07:04;41;35;
47587;PMS5003;34356;45.788;12.046;2022-10-16T11:09:37;34;31;
47587;PMS5003;34356;45.788;12.046;2022-10-16T11:12:11;34;29;
47587;PMS5003;34356;45.788;12.046;2022-10-16T11:14:46;39;37;
47587;PMS5003;34356;45.788;12.046;2022-10-16T11:17:22;36;36;
47587;PMS5003;34356;45.788;12.046;2022-10-16T11:19:55;33;30;
47587;PMS5003;34356;45.788;12.046;2022-10-16T11:22:27;33;29;
47587;PMS5003;34356;45.788;12.046;2022-10-16T11:25:02;31;31;
47587;PMS5003;34356;45.788;12.046;2022-10-16T11:27:40;30;26;
47587;PMS5003;34356;45.788;12.046;2022-10-16T11:30:13;30;29;
47587;PMS5003;34356;45.788;12.046;2022-10-16T11:32:51;33;28;
47587;PMS5003;34356;45.788;12.046;2022-10-16T11:35:33;28;28;
47587;PMS5003;34356;45.788;12.046;2022-10-16T11:38:08;32;30;
47587;PMS5003;34356;45.788;12.046;2022-10-16T11:40:41;33;31;
47587;PMS5003;34356;45.788;12.046;2022-10-16T11:43:15;28;24;
47587;PMS5003;34356;45.788;12.046;2022-10-16T11:45:49;37;31;
47587;PMS5003;34356;45.788;12.046;2022-10-16T11:48:22;27;27;
47587;PMS5003;34356;45.788;12.046;2022-10-16T11:50:56;25;25;
47587;PMS5003;34356;45.788;12.046;2022-10-16T11:53:35;29;27;
47587;PMS5003;34356;45.788;12.046;2022-10-16T11:56:12;23;20;
47587;PMS5003;34356;45.788;12.046;2022-10-16T11:58:45;33;30;
47587;PMS5003;34356;45.788;12.046;2022-10-16T12:01:22;25;25;
47587;PMS5003;34356;45.788;12.046;2022-10-16T12:04:03;29;28;
47587;PMS5003;34356;45.788;12.046;2022-10-16T12:06:42;26;23;
47587;PMS5003;34356;45.788;12.046;2022-10-16T12:09:14;26;23;
47587;PMS5003;34356;45.788;12.046;2022-10-16T12:11:46;27;21;
47587;PMS5003;34356;45.788;12.046;2022-10-16T12:14:46;29;27;
47587;PMS5003;34356;45.788;12.046;2022-10-16T12:17:34;19;18;
47587;PMS5003;34356;45.788;12.046;2022-10-16T12:20:20;20;17;
47587;PMS5003;34356;45.788;12.046;2022-10-16T12:22:51;29;23;
47587;PMS5003;34356;45.788;12.046;2022-10-16T12:25:22;26;22;
47587;PMS5003;34356;45.788;12.046;2022-10-16T12:27:55;21;20;
47587;PMS5003;34356;45.788;12.046;2022-10-16T12:30:26;21;21;
47587;PMS5003;34356;45.788;12.046;2022-10-16T12:32:55;18;18;
47587;PMS5003;34356;45.788;12.046;2022-10-16T12:35:25;23;21;
47587;PMS5003;34356;45.788;12.046;2022-10-16T12:38:04;23;21;
47587;PMS5003;34356;45.788;12.046;2022-10-16T12:40:34;21;21;
47587;PMS5003;34356;45.788;12.046;2022-10-16T12:43:12;26;23;
47587;PMS5003;34356;45.788;12.046;2022-10-16T12:45:58;22;22;
47587;PMS5003;34356;45.788;12.046;2022-10-16T12:48:27;28;25;
47587;PMS5003;34356;45.788;12.046;2022-10-16T12:50:54;24;22;
47587;PMS5003;34356;45.788;12.046;2022-10-16T12:53:21;27;27;
47587;PMS5003;34356;45.788;12.046;2022-10-16T12:55:53;26;24;
47587;PMS5003;34356;45.788;12.046;2022-10-16T12:58:33;30;30;
47587;PMS5003;34356;45.788;12.046;2022-10-16T13:01:16;23;21;
47587;PMS5003;34356;45.788;12.046;2022-10-16T13:04:04;21;21;
47587;PMS5003;34356;45.788;12.046;2022-10-16T13:07:17;27;26;
47587;PMS5003;34356;45.788;12.046;2022-10-16T13:10:00;24;23;
47587;PMS5003;34356;45.788;12.046;2022-10-16T13:12:43;31;27;
47587;PMS5003;34356;45.788;12.046;2022-10-16T13:15:31;27;25;
47587;PMS5003;34356;45.788;12.046;2022-10-16T13:18:11;24;23;
47587;PMS5003;34356;45.788;12.046;2022-10-16T13:20:51;27;26;
47587;PMS5003;34356;45.788;12.046;2022-10-16T13:23:29;26;26;
47587;PMS5003;34356;45.788;12.046;2022-10-16T13:26:07;24;23;
47587;PMS5003;34356;45.788;12.046;2022-10-16T13:28:43;24;21;
47587;PMS5003;34356;45.788;12.046;2022-10-16T13:31:14;25;24;
47587;PMS5003;34356;45.788;12.046;2022-10-16T13:33:45;29;27;
47587;PMS5003;34356;45.788;12.046;2022-10-16T13:36:18;27;27;
47587;PMS5003;34356;45.788;12.046;2022-10-16T13:38:47;27;26;
47587;PMS5003;34356;45.788;12.046;2022-10-16T13:41:15;20;20;
47587;PMS5003;34356;45.788;12.046;2022-10-16T13:43:44;28;26;
47587;PMS5003;34356;45.788;12.046;2022-10-16T13:46:16;21;20;
47587;PMS5003;34356;45.788;12.046;2022-10-16T13:48:55;27;26;
47587;PMS5003;34356;45.788;12.046;2022-10-16T13:51:24;23;22;
47587;PMS5003;34356;45.788;12.046;2022-10-16T13:53:52;23;21;
47587;PMS5003;34356;45.788;12.046;2022-10-16T13:56:22;29;24;
47587;PMS5003;34356;45.788;12.046;2022-10-16T13:58:58;24;20;
47587;PMS5003;34356;45.788;12.046;2022-10-16T14:01:26;25;22;
47587;PMS5003;34356;45.788;12.046;2022-10-16T14:03:59;23;21;
47587;PMS5003;34356;45.788;12.046;2022-10-16T14:06:28;25;24;
47587;PMS5003;34356;45.788;12.046;2022-10-16T14:08:58;22;21;
47587;PMS5003;34356;45.788;12.046;2022-10-16T14:11:31;28;27;
47587;PMS5003;34356;45.788;12.046;2022-10-16T14:14:00;23;22;
47587;PMS5003;34356;45.788;12.046;2022-10-16T14:16:29;20;19;
47587;PMS5003;34356;45.788;12.046;2022-10-16T14:18:59;24;23;
47587;PMS5003;34356;45.788;12.046;2022-10-16T14:21:29;23;21;
47587;PMS5003;34356;45.788;12.046;2022-10-16T14:23:56;29;26;
47587;PMS5003;34356;45.788;12.046;2022-10-16T14:26:25;25;24;
47587;PMS5003;34356;45.788;12.046;2022-10-16T14:29:04;26;23;
47587;PMS5003;34356;45.788;12.046;2022-10-16T14:31:38;21;19;
47587;PMS5003;34356;45.788;12.046;2022-10-16T14:34:22;24;23;
47587;PMS5003;34356;45.788;12.046;2022-10-16T14:36:51;23;22;
47587;PMS5003;34356;45.788;12.046;2022-10-16T14:39:19;26;22;
47587;PMS5003;34356;45.788;12.046;2022-10-16T14:41:48;21;20;
47587;PMS5003;34356;45.788;12.046;2022-10-16T14:44:17;23;20;
47587;PMS5003;34356;45.788;12.046;2022-10-16T14:46:46;30;28;
47587;PMS5003;34356;45.788;12.046;2022-10-16T14:49:16;31;26;
47587;PMS5003;34356;45.788;12.046;2022-10-16T14:51:46;21;18;
47587;PMS5003;34356;45.788;12.046;2022-10-16T14:54:14;27;27;
47587;PMS5003;34356;45.788;12.046;2022-10-16T14:56:47;20;20;
47587;PMS5003;34356;45.788;12.046;2022-10-16T14:59:18;24;23;
47587;PMS5003;34356;45.788;12.046;2022-10-16T15:01:48;24;24;
47587;PMS5003;34356;45.788;12.046;2022-10-16T15:04:16;24;24;
47587;PMS5003;34356;45.788;12.046;2022-10-16T15:06:44;29;26;
47587;PMS5003;34356;45.788;12.046;2022-10-16T15:09:12;22;22;
47587;PMS5003;34356;45.788;12.046;2022-10-16T15:11:39;27;27;
47587;PMS5003;34356;45.788;12.046;2022-10-16T15:14:08;21;20;
47587;PMS5003;34356;45.788;12.046;2022-10-16T15:16:39;25;24;
47587;PMS5003;34356;45.788;12.046;2022-10-16T15:19:06;29;26;
47587;PMS5003;34356;45.788;12.046;2022-10-16T15:21:33;29;27;
47587;PMS5003;34356;45.788;12.046;2022-10-16T15:24:00;21;21;
47587;PMS5003;34356;45.788;12.046;2022-10-16T15:26:28;33;31;
47587;PMS5003;34356;45.788;12.046;2022-10-16T15:28:56;25;25;
47587;PMS5003;34356;45.788;12.046;2022-10-16T15:31:23;25;25;
47587;PMS5003;34356;45.788;12.046;2022-10-16T15:33:50;22;21;
47587;PMS5003;34356;45.788;12.046;2022-10-16T15:36:17;22;19;
47587;PMS5003;34356;45.788;12.046;2022-10-16T15:38:50;23;21;
47587;PMS5003;34356;45.788;12.046;2022-10-16T15:41:17;27;26;
47587;PMS5003;34356;45.788;12.046;2022-10-16T15:43:45;25;25;
47587;PMS5003;34356;45.788;12.046;2022-10-16T15:46:14;28;27;
47587;PMS5003;34356;45.788;12.046;2022-10-16T15:48:44;30;27;
47587;PMS5003;34356;45.788;12.046;2022-10-16T15:51:11;28;28;
47587;PMS5003;34356;45.788;12.046;2022-10-16T15:53:38;23;22;
47587;PMS5003;34356;45.788;12.046;2022-10-16T15:56:06;23;23;
47587;PMS5003;34356;45.788;12.046;2022-10-16T15:58:35;27;23;
47587;PMS5003;34356;45.788;12.046;2022-10-16T16:01:02;28;27;
47587;PMS5003;34356;45.788;12.046;2022-10-16T16:03:30;24;22;
47587;PMS5003;34356;45.788;12.046;2022-10-16T16:05:58;28;28;
47587;PMS5003;34356;45.788;12.046;2022-10-16T16:08:29;24;23;
47587;PMS5003;34356;45.788;12.046;2022-10-16T16:10:57;29;26;
47587;PMS5003;34356;45.788;12.046;2022-10-16T16:13:25;39;38;
47587;PMS5003;34356;45.788;12.046;2022-10-16T16:15:52;48;46;
47587;PMS5003;34356;45.788;12.046;2022-10-16T16:18:19;65;63;
47587;PMS5003;34356;45.788;12.046;2022-10-16T16:20:47;60;54;
47587;PMS5003;34356;45.788;12.046;2022-10-16T16:23:14;50;45;
47587;PMS5003;34356;45.788;12.046;2022-10-16T16:25:41;51;43;